sensor_id;sensor_type;location;lat;lon;timestamp;temperature;humidity
8591;DHT22;4333;48.322;14.340;2023-05-10T00:00:50;9.90;99.90
8591;DHT22;4333;48.322;14.340;2023-05-10T00:03:19;9.80;99.90
8591;DHT22;4333;48.322;14.340;2023-05-10T00:05:49;9.90;99.30
8591;DHT22;4333;48.322;14.340;2023-05-10T00:08:17;10.00;97.00
8591;DHT22;4333;48.322;14.340;2023-05-10T00:10:43;9.90;99.90
8591;DHT22;4333;48.322;14.340;2023-05-10T00:13:09;9.90;98.10
8591;DHT22;4333;48.322;14.340;2023-05-10T00:15:34;9.90;98.70
8591;DHT22;4333;48.322;14.340;2023-05-10T00:18:00;9.90;99.90
8591;DHT22;4333;48.322;14.340;2023-05-10T00:20:26;9.90;98.50
8591;DHT22;4333;48.322;14.340;2023-05-10T00:22:52;9.80;98.70
8591;DHT22;4333;48.322;14.340;2023-05-10T00:25:23;9.90;99.90
8591;DHT22;4333;48.322;14.340;2023-05-10T00:27:51;9.90;99.90
8591;DHT22;4333;48.322;14.340;2023-05-10T00:30:20;9.80;98.60
8591;DHT22;4333;48.322;14.340;2023-05-10T00:32:46;9.90;94.90
8591;DHT22;4333;48.322;14.340;2023-05-10T00:35:13;10.00;93.10
8591;DHT22;4333;48.322;14.340;2023-05-10T00:37:39;9.90;94.60
8591;DHT22;4333;48.322;14.340;2023-05-10T00:40:06;9.90;94.30
8591;DHT22;4333;48.322;14.340;2023-05-10T00:42:32;9.90;93.90
8591;DHT22;4333;48.322;14.340;2023-05-10T00:45:03;10.00;92.70
8591;DHT22;4333;48.322;14.340;2023-05-10T00:47:29;10.00;89.50
8591;DHT22;4333;48.322;14.340;2023-05-10T00:49:57;10.10;85.80
8591;DHT22;4333;48.322;14.340;2023-05-10T00:52:23;10.10;86.30
8591;DHT22;4333;48.322;14.340;2023-05-10T00:54:51;10.10;85.30
8591;DHT22;4333;48.322;14.340;2023-05-10T00:57:17;10.10;81.60
8591;DHT22;4333;48.322;14.340;2023-05-10T00:59:46;10.30;77.50
8591;DHT22;4333;48.322;14.340;2023-05-10T01:02:12;10.30;74.20
8591;DHT22;4333;48.322;14.340;2023-05-10T01:04:38;10.50;69.50
8591;DHT22;4333;48.322;14.340;2023-05-10T01:07:06;10.50;66.80
8591;DHT22;4333;48.322;14.340;2023-05-10T01:09:34;10.40;75.30
8591;DHT22;4333;48.322;14.340;2023-05-10T01:12:01;10.30;75.40
8591;DHT22;4333;48.322;14.340;2023-05-10T01:14:27;10.20;76.30
8591;DHT22;4333;48.322;14.340;2023-05-10T01:16:54;10.20;75.20
8591;DHT22;4333;48.322;14.340;2023-05-10T01:19:25;10.20;73.00
8591;DHT22;4333;48.322;14.340;2023-05-10T01:36:13;10.10;73.60
8591;DHT22;4333;48.322;14.340;2023-05-10T01:38:51;10.10;73.20
8591;DHT22;4333;48.322;14.340;2023-05-10T01:41:33;10.10;74.60
8591;DHT22;4333;48.322;14.340;2023-05-10T01:46:46;10.00;77.40
8591;DHT22;4333;48.322;14.340;2023-05-10T01:49:24;10.00;75.20
8591;DHT22;4333;48.322;14.340;2023-05-10T01:51:58;10.00;72.80
8591;DHT22;4333;48.322;14.340;2023-05-10T01:54:27;10.00;74.70
8591;DHT22;4333;48.322;14.340;2023-05-10T01:57:00;10.00;76.20
8591;DHT22;4333;48.322;14.340;2023-05-10T01:59:31;10.00;74.20
8591;DHT22;4333;48.322;14.340;2023-05-10T02:02:02;10.00;71.90
8591;DHT22;4333;48.322;14.340;2023-05-10T02:04:32;10.00;72.90
8591;DHT22;4333;48.322;14.340;2023-05-10T02:07:04;9.90;76.10
8591;DHT22;4333;48.322;14.340;2023-05-10T02:09:37;9.90;76.40
8591;DHT22;4333;48.322;14.340;2023-05-10T02:12:05;9.90;75.70
8591;DHT22;4333;48.322;14.340;2023-05-10T02:14:36;9.80;80.00
8591;DHT22;4333;48.322;14.340;2023-05-10T02:17:06;9.80;79.30
8591;DHT22;4333;48.322;14.340;2023-05-10T02:19:34;9.80;76.50
8591;DHT22;4333;48.322;14.340;2023-05-10T02:22:04;9.80;78.00
8591;DHT22;4333;48.322;14.340;2023-05-10T02:24:33;9.80;81.30
8591;DHT22;4333;48.322;14.340;2023-05-10T02:27:03;9.70;81.80
8591;DHT22;4333;48.322;14.340;2023-05-10T02:29:30;9.70;80.80
8591;DHT22;4333;48.322;14.340;2023-05-10T02:31:59;9.60;85.30
8591;DHT22;4333;48.322;14.340;2023-05-10T02:34:27;9.50;90.70
8591;DHT22;4333;48.322;14.340;2023-05-10T02:36:58;9.40;95.10
8591;DHT22;4333;48.322;14.340;2023-05-10T02:39:24;9.30;94.40
8591;DHT22;4333;48.322;14.340;2023-05-10T02:41:54;9.20;97.20
8591;DHT22;4333;48.322;14.340;2023-05-10T02:44:22;9.10;99.90
8591;DHT22;4333;48.322;14.340;2023-05-10T02:46:49;9.20;93.40
8591;DHT22;4333;48.322;14.340;2023-05-10T02:49:15;9.30;90.50
8591;DHT22;4333;48.322;14.340;2023-05-10T02:51:44;9.40;89.70
8591;DHT22;4333;48.322;14.340;2023-05-10T02:54:19;9.50;81.80
8591;DHT22;4333;48.322;14.340;2023-05-10T02:56:55;9.60;87.10
8591;DHT22;4333;48.322;14.340;2023-05-10T02:59:21;9.40;94.70
8591;DHT22;4333;48.322;14.340;2023-05-10T03:01:47;9.10;99.90
8591;DHT22;4333;48.322;14.340;2023-05-10T03:04:13;9.10;99.90
8591;DHT22;4333;48.322;14.340;2023-05-10T03:06:41;9.00;99.90
8591;DHT22;4333;48.322;14.340;2023-05-10T03:09:07;8.90;99.90
8591;DHT22;4333;48.322;14.340;2023-05-10T03:11:50;9.00;94.90
8591;DHT22;4333;48.322;14.340;2023-05-10T03:17:11;9.30;91.40
8591;DHT22;4333;48.322;14.340;2023-05-10T03:19:48;9.20;98.80
8591;DHT22;4333;48.322;14.340;2023-05-10T03:22:24;9.10;95.60
8591;DHT22;4333;48.322;14.340;2023-05-10T03:24:56;9.10;99.90
8591;DHT22;4333;48.322;14.340;2023-05-10T03:27:26;9.10;99.90
8591;DHT22;4333;48.322;14.340;2023-05-10T03:29:54;9.10;99.90
8591;DHT22;4333;48.322;14.340;2023-05-10T03:32:21;9.10;99.90
8591;DHT22;4333;48.322;14.340;2023-05-10T03:34:47;9.00;99.90
8591;DHT22;4333;48.322;14.340;2023-05-10T03:37:13;9.00;99.90
8591;DHT22;4333;48.322;14.340;2023-05-10T03:39:38;9.00;99.90
8591;DHT22;4333;48.322;14.340;2023-05-10T03:42:08;9.00;99.90
8591;DHT22;4333;48.322;14.340;2023-05-10T03:44:39;9.10;99.90
8591;DHT22;4333;48.322;14.340;2023-05-10T03:47:07;9.10;99.90
8591;DHT22;4333;48.322;14.340;2023-05-10T03:49:33;9.00;99.90
8591;DHT22;4333;48.322;14.340;2023-05-10T03:52:01;9.00;99.90
8591;DHT22;4333;48.322;14.340;2023-05-10T03:54:27;9.00;99.90
8591;DHT22;4333;48.322;14.340;2023-05-10T03:56:55;9.00;99.90
8591;DHT22;4333;48.322;14.340;2023-05-10T03:59:21;9.00;99.90
8591;DHT22;4333;48.322;14.340;2023-05-10T04:01:47;9.00;99.90
8591;DHT22;4333;48.322;14.340;2023-05-10T04:04:15;9.20;98.20
8591;DHT22;4333;48.322;14.340;2023-05-10T04:06:41;9.30;97.50
8591;DHT22;4333;48.322;14.340;2023-05-10T04:09:09;9.50;99.90
8591;DHT22;4333;48.322;14.340;2023-05-10T04:11:35;9.50;99.90
8591;DHT22;4333;48.322;14.340;2023-05-10T04:14:00;9.60;99.90
8591;DHT22;4333;48.322;14.340;2023-05-10T04:16:26;9.60;99.90
8591;DHT22;4333;48.322;14.340;2023-05-10T04:18:52;9.50;99.60
8591;DHT22;4333;48.322;14.340;2023-05-10T04:21:17;9.60;99.90
8591;DHT22;4333;48.322;14.340;2023-05-10T04:23:44;9.70;99.90
8591;DHT22;4333;48.322;14.340;2023-05-10T04:26:10;9.80;99.90
8591;DHT22;4333;48.322;14.340;2023-05-10T04:28:36;10.00;99.90
8591;DHT22;4333;48.322;14.340;2023-05-10T04:31:06;10.10;99.90
8591;DHT22;4333;48.322;14.340;2023-05-10T04:33:33;10.10;99.90
8591;DHT22;4333;48.322;14.340;2023-05-10T04:35:59;10.20;99.90
8591;DHT22;4333;48.322;14.340;2023-05-10T04:38:25;10.20;99.90
8591;DHT22;4333;48.322;14.340;2023-05-10T04:40:51;10.30;99.90
8591;DHT22;4333;48.322;14.340;2023-05-10T04:43:20;10.30;99.90
8591;DHT22;4333;48.322;14.340;2023-05-10T04:45:48;10.30;99.90
8591;DHT22;4333;48.322;14.340;2023-05-10T04:48:16;10.40;99.90
8591;DHT22;4333;48.322;14.340;2023-05-10T04:50:45;10.50;99.90
8591;DHT22;4333;48.322;14.340;2023-05-10T04:53:10;10.60;99.90
8591;DHT22;4333;48.322;14.340;2023-05-10T04:55:36;10.70;99.90
8591;DHT22;4333;48.322;14.340;2023-05-10T04:58:02;10.70;99.90
8591;DHT22;4333;48.322;14.340;2023-05-10T05:00:30;10.80;99.90
8591;DHT22;4333;48.322;14.340;2023-05-10T05:02:55;10.90;99.90
8591;DHT22;4333;48.322;14.340;2023-05-10T05:05:21;10.90;99.90
8591;DHT22;4333;48.322;14.340;2023-05-10T05:07:47;11.00;99.90
8591;DHT22;4333;48.322;14.340;2023-05-10T05:10:13;11.00;99.90
8591;DHT22;4333;48.322;14.340;2023-05-10T05:12:39;11.10;99.90
8591;DHT22;4333;48.322;14.340;2023-05-10T05:15:05;11.20;99.90
8591;DHT22;4333;48.322;14.340;2023-05-10T05:17:33;11.30;99.90
8591;DHT22;4333;48.322;14.340;2023-05-10T05:20:04;11.40;99.90
8591;DHT22;4333;48.322;14.340;2023-05-10T05:22:32;11.30;96.10
8591;DHT22;4333;48.322;14.340;2023-05-10T05:24:58;11.40;91.90
8591;DHT22;4333;48.322;14.340;2023-05-10T05:27:27;11.40;90.30
8591;DHT22;4333;48.322;14.340;2023-05-10T05:29:54;11.40;91.60
8591;DHT22;4333;48.322;14.340;2023-05-10T05:32:21;11.50;92.80
8591;DHT22;4333;48.322;14.340;2023-05-10T05:34:47;11.60;92.50
8591;DHT22;4333;48.322;14.340;2023-05-10T05:37:22;11.70;94.30
8591;DHT22;4333;48.322;14.340;2023-05-10T05:39:52;11.70;93.50
8591;DHT22;4333;48.322;14.340;2023-05-10T05:42:21;11.70;90.40
8591;DHT22;4333;48.322;14.340;2023-05-10T05:44:47;11.80;86.30
8591;DHT22;4333;48.322;14.340;2023-05-10T05:47:12;11.80;80.30
8591;DHT22;4333;48.322;14.340;2023-05-10T05:49:40;11.80;75.60
8591;DHT22;4333;48.322;14.340;2023-05-10T05:52:06;11.90;68.90
8591;DHT22;4333;48.322;14.340;2023-05-10T05:54:33;11.90;66.10
8591;DHT22;4333;48.322;14.340;2023-05-10T05:57:00;11.90;62.40
8591;DHT22;4333;48.322;14.340;2023-05-10T05:59:27;11.90;73.00
8591;DHT22;4333;48.322;14.340;2023-05-10T06:01:52;11.90;69.10
8591;DHT22;4333;48.322;14.340;2023-05-10T06:04:18;11.90;64.60
8591;DHT22;4333;48.322;14.340;2023-05-10T06:06:44;11.90;60.00
8591;DHT22;4333;48.322;14.340;2023-05-10T06:09:10;12.00;62.10
8591;DHT22;4333;48.322;14.340;2023-05-10T06:11:36;12.20;60.20
8591;DHT22;4333;48.322;14.340;2023-05-10T06:14:03;12.20;63.00
8591;DHT22;4333;48.322;14.340;2023-05-10T06:16:34;12.20;62.30
8591;DHT22;4333;48.322;14.340;2023-05-10T06:18:59;12.20;59.70
8591;DHT22;4333;48.322;14.340;2023-05-10T06:21:25;12.20;56.80
8591;DHT22;4333;48.322;14.340;2023-05-10T06:23:51;12.00;53.90
8591;DHT22;4333;48.322;14.340;2023-05-10T06:26:19;12.00;57.00
8591;DHT22;4333;48.322;14.340;2023-05-10T06:28:46;12.00;58.30
8591;DHT22;4333;48.322;14.340;2023-05-10T06:31:13;12.00;55.90
8591;DHT22;4333;48.322;14.340;2023-05-10T06:33:38;12.00;53.50
8591;DHT22;4333;48.322;14.340;2023-05-10T06:36:04;12.00;56.70
8591;DHT22;4333;48.322;14.340;2023-05-10T06:38:30;12.00;59.60
8591;DHT22;4333;48.322;14.340;2023-05-10T06:40:56;12.00;57.00
8591;DHT22;4333;48.322;14.340;2023-05-10T06:43:21;12.00;57.20
8591;DHT22;4333;48.322;14.340;2023-05-10T06:45:50;12.00;56.60
8591;DHT22;4333;48.322;14.340;2023-05-10T06:48:21;11.90;56.10
8591;DHT22;4333;48.322;14.340;2023-05-10T06:50:47;12.00;57.70
8591;DHT22;4333;48.322;14.340;2023-05-10T06:53:13;12.00;62.00
8591;DHT22;4333;48.322;14.340;2023-05-10T06:55:39;12.10;58.90
8591;DHT22;4333;48.322;14.340;2023-05-10T06:58:06;12.10;61.60
8591;DHT22;4333;48.322;14.340;2023-05-10T07:00:32;12.20;65.90
8591;DHT22;4333;48.322;14.340;2023-05-10T07:02:57;12.20;70.80
8591;DHT22;4333;48.322;14.340;2023-05-10T07:05:26;12.30;75.10
8591;DHT22;4333;48.322;14.340;2023-05-10T07:07:53;12.30;69.20
8591;DHT22;4333;48.322;14.340;2023-05-10T07:10:18;12.40;68.80
8591;DHT22;4333;48.322;14.340;2023-05-10T07:12:47;12.50;67.30
8591;DHT22;4333;48.322;14.340;2023-05-10T07:15:16;12.50;65.50
8591;DHT22;4333;48.322;14.340;2023-05-10T07:17:49;12.50;68.60
8591;DHT22;4333;48.322;14.340;2023-05-10T07:20:20;12.50;60.40
8591;DHT22;4333;48.322;14.340;2023-05-10T07:22:48;12.50;55.20
8591;DHT22;4333;48.322;14.340;2023-05-10T07:25:14;12.40;56.70
8591;DHT22;4333;48.322;14.340;2023-05-10T07:27:43;12.40;59.60
8591;DHT22;4333;48.322;14.340;2023-05-10T07:30:09;12.50;69.50
8591;DHT22;4333;48.322;14.340;2023-05-10T07:32:34;12.60;64.90
8591;DHT22;4333;48.322;14.340;2023-05-10T07:35:00;12.60;62.70
8591;DHT22;4333;48.322;14.340;2023-05-10T07:37:28;12.70;57.90
8591;DHT22;4333;48.322;14.340;2023-05-10T07:39:58;12.80;61.30
8591;DHT22;4333;48.322;14.340;2023-05-10T07:42:23;12.70;65.10
8591;DHT22;4333;48.322;14.340;2023-05-10T07:44:49;12.80;65.00
8591;DHT22;4333;48.322;14.340;2023-05-10T07:47:15;12.80;61.40
8591;DHT22;4333;48.322;14.340;2023-05-10T07:49:41;12.90;62.00
8591;DHT22;4333;48.322;14.340;2023-05-10T07:52:06;13.00;63.40
8591;DHT22;4333;48.322;14.340;2023-05-10T07:54:32;13.00;62.90
8591;DHT22;4333;48.322;14.340;2023-05-10T07:57:00;13.00;60.70
8591;DHT22;4333;48.322;14.340;2023-05-10T07:59:26;13.10;60.70
8591;DHT22;4333;48.322;14.340;2023-05-10T08:01:52;13.10;61.80
8591;DHT22;4333;48.322;14.340;2023-05-10T08:04:21;13.20;63.80
8591;DHT22;4333;48.322;14.340;2023-05-10T08:06:50;13.30;58.80
8591;DHT22;4333;48.322;14.340;2023-05-10T08:09:16;13.10;56.50
8591;DHT22;4333;48.322;14.340;2023-05-10T08:11:43;13.10;58.80
8591;DHT22;4333;48.322;14.340;2023-05-10T08:14:08;13.10;59.90
8591;DHT22;4333;48.322;14.340;2023-05-10T08:16:37;13.00;61.00
8591;DHT22;4333;48.322;14.340;2023-05-10T08:19:03;13.00;59.40
8591;DHT22;4333;48.322;14.340;2023-05-10T08:21:31;12.70;67.10
8591;DHT22;4333;48.322;14.340;2023-05-10T08:23:59;12.60;74.90
8591;DHT22;4333;48.322;14.340;2023-05-10T08:26:27;12.50;78.90
8591;DHT22;4333;48.322;14.340;2023-05-10T08:28:56;12.50;86.00
8591;DHT22;4333;48.322;14.340;2023-05-10T08:31:24;12.40;90.30
8591;DHT22;4333;48.322;14.340;2023-05-10T08:33:50;12.20;95.30
8591;DHT22;4333;48.322;14.340;2023-05-10T08:36:18;12.10;99.20
8591;DHT22;4333;48.322;14.340;2023-05-10T08:38:50;12.10;99.90
8591;DHT22;4333;48.322;14.340;2023-05-10T08:41:22;12.20;99.90
8591;DHT22;4333;48.322;14.340;2023-05-10T08:43:51;12.10;99.90
8591;DHT22;4333;48.322;14.340;2023-05-10T08:46:19;12.10;99.90
8591;DHT22;4333;48.322;14.340;2023-05-10T08:48:45;12.20;99.90
8591;DHT22;4333;48.322;14.340;2023-05-10T08:51:18;12.10;99.90
8591;DHT22;4333;48.322;14.340;2023-05-10T08:53:44;12.30;99.90
8591;DHT22;4333;48.322;14.340;2023-05-10T08:56:10;12.40;99.90
8591;DHT22;4333;48.322;14.340;2023-05-10T08:58:37;12.40;99.90
8591;DHT22;4333;48.322;14.340;2023-05-10T09:01:08;12.40;99.90
8591;DHT22;4333;48.322;14.340;2023-05-10T09:03:35;12.30;99.90
8591;DHT22;4333;48.322;14.340;2023-05-10T09:06:03;12.20;99.90
8591;DHT22;4333;48.322;14.340;2023-05-10T09:08:31;12.20;99.90
8591;DHT22;4333;48.322;14.340;2023-05-10T09:10:57;12.30;99.90
8591;DHT22;4333;48.322;14.340;2023-05-10T09:13:23;12.40;99.90
8591;DHT22;4333;48.322;14.340;2023-05-10T09:15:53;12.50;99.90
8591;DHT22;4333;48.322;14.340;2023-05-10T09:18:21;12.50;99.90
8591;DHT22;4333;48.322;14.340;2023-05-10T09:20:49;12.60;99.90
8591;DHT22;4333;48.322;14.340;2023-05-10T09:23:14;12.60;99.90
8591;DHT22;4333;48.322;14.340;2023-05-10T09:25:45;12.60;99.90
8591;DHT22;4333;48.322;14.340;2023-05-10T09:28:11;12.60;99.90
8591;DHT22;4333;48.322;14.340;2023-05-10T09:30:39;12.60;99.90
8591;DHT22;4333;48.322;14.340;2023-05-10T09:33:05;12.70;99.90
8591;DHT22;4333;48.322;14.340;2023-05-10T09:35:32;12.70;99.90
8591;DHT22;4333;48.322;14.340;2023-05-10T09:38:06;12.90;99.90
8591;DHT22;4333;48.322;14.340;2023-05-10T09:40:31;12.90;99.90
8591;DHT22;4333;48.322;14.340;2023-05-10T09:43:01;12.70;99.90
8591;DHT22;4333;48.322;14.340;2023-05-10T09:45:28;12.70;99.90
8591;DHT22;4333;48.322;14.340;2023-05-10T09:47:55;12.70;99.90
8591;DHT22;4333;48.322;14.340;2023-05-10T09:50:21;12.50;99.90
8591;DHT22;4333;48.322;14.340;2023-05-10T09:52:54;12.50;99.90
8591;DHT22;4333;48.322;14.340;2023-05-10T09:55:23;12.60;99.90
8591;DHT22;4333;48.322;14.340;2023-05-10T09:57:58;12.60;99.90
8591;DHT22;4333;48.322;14.340;2023-05-10T10:00:24;12.80;99.90
8591;DHT22;4333;48.322;14.340;2023-05-10T10:03:00;13.00;99.90
8591;DHT22;4333;48.322;14.340;2023-05-10T10:05:35;13.30;99.90
8591;DHT22;4333;48.322;14.340;2023-05-10T10:08:06;13.40;99.90
8591;DHT22;4333;48.322;14.340;2023-05-10T10:10:32;13.50;99.90
8591;DHT22;4333;48.322;14.340;2023-05-10T10:13:01;13.60;99.90
8591;DHT22;4333;48.322;14.340;2023-05-10T10:15:30;13.60;99.90
8591;DHT22;4333;48.322;14.340;2023-05-10T10:17:56;13.60;99.90
8591;DHT22;4333;48.322;14.340;2023-05-10T10:20:23;13.40;99.90
8591;DHT22;4333;48.322;14.340;2023-05-10T10:22:49;13.30;99.90
8591;DHT22;4333;48.322;14.340;2023-05-10T10:25:16;13.40;99.90
8591;DHT22;4333;48.322;14.340;2023-05-10T10:33:33;13.60;99.90
8591;DHT22;4333;48.322;14.340;2023-05-10T10:36:02;13.70;99.90
8591;DHT22;4333;48.322;14.340;2023-05-10T10:55:17;14.20;99.90
8591;DHT22;4333;48.322;14.340;2023-05-10T10:57:52;14.20;99.90
8591;DHT22;4333;48.322;14.340;2023-05-10T11:00:24;14.10;99.90
8591;DHT22;4333;48.322;14.340;2023-05-10T11:02:52;14.00;99.90
8591;DHT22;4333;48.322;14.340;2023-05-10T11:08:18;13.70;99.90
8591;DHT22;4333;48.322;14.340;2023-05-10T11:13:45;13.80;99.90
8591;DHT22;4333;48.322;14.340;2023-05-10T11:19:02;14.00;99.90
8591;DHT22;4333;48.322;14.340;2023-05-10T11:21:32;14.00;99.90
8591;DHT22;4333;48.322;14.340;2023-05-10T11:23:59;14.10;99.90
8591;DHT22;4333;48.322;14.340;2023-05-10T11:26:33;14.30;99.90
8591;DHT22;4333;48.322;14.340;2023-05-10T11:28:59;14.50;99.90
8591;DHT22;4333;48.322;14.340;2023-05-10T11:31:30;14.60;99.90
8591;DHT22;4333;48.322;14.340;2023-05-10T11:34:01;14.80;99.90
8591;DHT22;4333;48.322;14.340;2023-05-10T11:36:29;14.90;99.90
8591;DHT22;4333;48.322;14.340;2023-05-10T11:38:57;14.90;99.90
8591;DHT22;4333;48.322;14.340;2023-05-10T11:41:27;15.00;99.90
8591;DHT22;4333;48.322;14.340;2023-05-10T11:43:55;15.00;99.90
8591;DHT22;4333;48.322;14.340;2023-05-10T11:46:26;14.90;99.90
8591;DHT22;4333;48.322;14.340;2023-05-10T11:48:58;14.70;99.90
8591;DHT22;4333;48.322;14.340;2023-05-10T11:51:27;14.40;99.90
8591;DHT22;4333;48.322;14.340;2023-05-10T11:53:55;14.30;99.90
8591;DHT22;4333;48.322;14.340;2023-05-10T11:56:21;14.30;99.90
8591;DHT22;4333;48.322;14.340;2023-05-10T11:58:53;14.30;99.90
8591;DHT22;4333;48.322;14.340;2023-05-10T12:01:20;14.30;99.90
8591;DHT22;4333;48.322;14.340;2023-05-10T12:03:46;14.30;99.90
8591;DHT22;4333;48.322;14.340;2023-05-10T12:06:12;14.20;99.90
8591;DHT22;4333;48.322;14.340;2023-05-10T12:08:47;13.90;99.90
8591;DHT22;4333;48.322;14.340;2023-05-10T12:11:13;13.70;99.90
8591;DHT22;4333;48.322;14.340;2023-05-10T12:13:43;13.50;99.90
8591;DHT22;4333;48.322;14.340;2023-05-10T12:16:21;13.50;99.90
8591;DHT22;4333;48.322;14.340;2023-05-10T12:18:51;13.60;99.90
8591;DHT22;4333;48.322;14.340;2023-05-10T12:21:18;13.60;99.90
8591;DHT22;4333;48.322;14.340;2023-05-10T12:23:50;13.80;99.90
8591;DHT22;4333;48.322;14.340;2023-05-10T12:26:21;13.80;99.90
8591;DHT22;4333;48.322;14.340;2023-05-10T12:28:47;14.00;99.90
8591;DHT22;4333;48.322;14.340;2023-05-10T12:31:15;14.30;99.90
8591;DHT22;4333;48.322;14.340;2023-05-10T12:33:44;14.40;99.90
8591;DHT22;4333;48.322;14.340;2023-05-10T12:36:14;14.50;99.90
8591;DHT22;4333;48.322;14.340;2023-05-10T12:38:41;14.50;99.90
8591;DHT22;4333;48.322;14.340;2023-05-10T12:41:15;14.60;99.90
8591;DHT22;4333;48.322;14.340;2023-05-10T12:43:41;14.40;99.90
8591;DHT22;4333;48.322;14.340;2023-05-10T12:46:14;14.50;99.90
8591;DHT22;4333;48.322;14.340;2023-05-10T12:48:41;14.60;99.90
8591;DHT22;4333;48.322;14.340;2023-05-10T12:51:07;14.80;99.90
8591;DHT22;4333;48.322;14.340;2023-05-10T12:53:40;14.90;99.90
8591;DHT22;4333;48.322;14.340;2023-05-10T12:56:06;15.00;99.90
8591;DHT22;4333;48.322;14.340;2023-05-10T12:58:33;15.10;99.90
8591;DHT22;4333;48.322;14.340;2023-05-10T13:01:07;15.10;99.90
8591;DHT22;4333;48.322;14.340;2023-05-10T13:03:33;15.00;99.90
8591;DHT22;4333;48.322;14.340;2023-05-10T13:06:02;15.10;99.90
8591;DHT22;4333;48.322;14.340;2023-05-10T13:08:27;15.20;99.90
8591;DHT22;4333;48.322;14.340;2023-05-10T13:10:57;15.30;99.90
8591;DHT22;4333;48.322;14.340;2023-05-10T13:13:25;15.30;99.90
8591;DHT22;4333;48.322;14.340;2023-05-10T13:15:51;15.20;99.90
8591;DHT22;4333;48.322;14.340;2023-05-10T13:18:17;15.30;99.90
8591;DHT22;4333;48.322;14.340;2023-05-10T13:20:45;15.30;99.90
8591;DHT22;4333;48.322;14.340;2023-05-10T13:23:14;15.40;99.90
8591;DHT22;4333;48.322;14.340;2023-05-10T13:25:42;15.40;99.90
8591;DHT22;4333;48.322;14.340;2023-05-10T13:28:12;15.30;99.90
8591;DHT22;4333;48.322;14.340;2023-05-10T13:30:40;15.30;99.90
8591;DHT22;4333;48.322;14.340;2023-05-10T13:33:11;15.20;99.90
8591;DHT22;4333;48.322;14.340;2023-05-10T13:35:39;15.20;99.90
8591;DHT22;4333;48.322;14.340;2023-05-10T13:38:04;15.10;99.90
8591;DHT22;4333;48.322;14.340;2023-05-10T13:40:33;15.20;99.90
8591;DHT22;4333;48.322;14.340;2023-05-10T13:43:01;15.20;99.90
8591;DHT22;4333;48.322;14.340;2023-05-10T13:45:32;15.20;99.90
8591;DHT22;4333;48.322;14.340;2023-05-10T13:47:58;15.10;99.90
8591;DHT22;4333;48.322;14.340;2023-05-10T13:50:24;15.10;99.90
8591;DHT22;4333;48.322;14.340;2023-05-10T13:52:54;15.00;99.90
8591;DHT22;4333;48.322;14.340;2023-05-10T13:55:20;15.00;99.90
8591;DHT22;4333;48.322;14.340;2023-05-10T13:57:46;14.90;99.90
8591;DHT22;4333;48.322;14.340;2023-05-10T14:00:12;15.10;99.90
8591;DHT22;4333;48.322;14.340;2023-05-10T14:02:44;15.00;99.90
8591;DHT22;4333;48.322;14.340;2023-05-10T14:05:09;15.10;99.90
8591;DHT22;4333;48.322;14.340;2023-05-10T14:07:35;15.10;99.90
8591;DHT22;4333;48.322;14.340;2023-05-10T14:10:01;15.20;99.90
8591;DHT22;4333;48.322;14.340;2023-05-10T14:12:27;15.40;99.90
8591;DHT22;4333;48.322;14.340;2023-05-10T14:14:53;15.70;99.90
8591;DHT22;4333;48.322;14.340;2023-05-10T14:17:20;16.00;99.90
8591;DHT22;4333;48.322;14.340;2023-05-10T14:19:47;16.10;99.90
8591;DHT22;4333;48.322;14.340;2023-05-10T14:22:13;16.30;99.90
8591;DHT22;4333;48.322;14.340;2023-05-10T14:24:41;16.50;99.90
8591;DHT22;4333;48.322;14.340;2023-05-10T14:27:06;16.50;99.90
8591;DHT22;4333;48.322;14.340;2023-05-10T14:29:34;16.60;99.90
8591;DHT22;4333;48.322;14.340;2023-05-10T14:32:00;16.70;99.90
8591;DHT22;4333;48.322;14.340;2023-05-10T14:34:28;16.70;99.90
8591;DHT22;4333;48.322;14.340;2023-05-10T14:36:54;16.80;99.90
8591;DHT22;4333;48.322;14.340;2023-05-10T14:39:20;16.80;99.90
8591;DHT22;4333;48.322;14.340;2023-05-10T14:41:48;16.70;99.90
8591;DHT22;4333;48.322;14.340;2023-05-10T14:44:14;16.50;99.90
8591;DHT22;4333;48.322;14.340;2023-05-10T14:46:41;16.20;99.90
8591;DHT22;4333;48.322;14.340;2023-05-10T14:49:09;16.20;99.90
8591;DHT22;4333;48.322;14.340;2023-05-10T14:51:36;16.30;99.90
8591;DHT22;4333;48.322;14.340;2023-05-10T14:54:02;16.20;99.90
8591;DHT22;4333;48.322;14.340;2023-05-10T14:56:28;16.10;99.90
8591;DHT22;4333;48.322;14.340;2023-05-10T14:58:54;16.00;99.90
8591;DHT22;4333;48.322;14.340;2023-05-10T15:01:19;15.90;99.90
8591;DHT22;4333;48.322;14.340;2023-05-10T15:03:47;15.90;99.90
8591;DHT22;4333;48.322;14.340;2023-05-10T15:06:14;15.90;99.90
8591;DHT22;4333;48.322;14.340;2023-05-10T15:08:41;15.80;99.90
8591;DHT22;4333;48.322;14.340;2023-05-10T15:11:08;15.80;99.90
8591;DHT22;4333;48.322;14.340;2023-05-10T15:13:37;15.80;99.90
8591;DHT22;4333;48.322;14.340;2023-05-10T15:16:03;15.80;99.90
8591;DHT22;4333;48.322;14.340;2023-05-10T15:18:28;15.80;99.90
8591;DHT22;4333;48.322;14.340;2023-05-10T15:20:54;15.80;99.90
8591;DHT22;4333;48.322;14.340;2023-05-10T15:23:20;15.80;99.90
8591;DHT22;4333;48.322;14.340;2023-05-10T15:25:48;15.70;99.90
8591;DHT22;4333;48.322;14.340;2023-05-10T15:28:15;15.70;99.90
8591;DHT22;4333;48.322;14.340;2023-05-10T15:30:41;15.80;99.90
8591;DHT22;4333;48.322;14.340;2023-05-10T15:33:06;15.70;99.90
8591;DHT22;4333;48.322;14.340;2023-05-10T15:35:33;15.70;99.90
8591;DHT22;4333;48.322;14.340;2023-05-10T15:38:05;15.70;99.90
8591;DHT22;4333;48.322;14.340;2023-05-10T15:40:31;15.80;99.90
8591;DHT22;4333;48.322;14.340;2023-05-10T15:42:57;15.70;99.90
8591;DHT22;4333;48.322;14.340;2023-05-10T15:45:22;15.70;99.90
8591;DHT22;4333;48.322;14.340;2023-05-10T15:47:48;15.80;99.90
8591;DHT22;4333;48.322;14.340;2023-05-10T15:50:16;15.90;99.90
8591;DHT22;4333;48.322;14.340;2023-05-10T15:52:42;15.90;99.90
8591;DHT22;4333;48.322;14.340;2023-05-10T15:55:10;15.90;99.90
8591;DHT22;4333;48.322;14.340;2023-05-10T15:57:43;15.70;99.90
8591;DHT22;4333;48.322;14.340;2023-05-10T16:00:11;15.50;99.90
8591;DHT22;4333;48.322;14.340;2023-05-10T16:02:38;15.30;99.90
8591;DHT22;4333;48.322;14.340;2023-05-10T16:05:05;15.30;99.90
8591;DHT22;4333;48.322;14.340;2023-05-10T16:07:30;15.30;99.90
8591;DHT22;4333;48.322;14.340;2023-05-10T16:10:03;15.20;99.90
8591;DHT22;4333;48.322;14.340;2023-05-10T16:12:33;15.30;99.90
8591;DHT22;4333;48.322;14.340;2023-05-10T16:15:01;15.30;99.90
8591;DHT22;4333;48.322;14.340;2023-05-10T16:17:27;15.30;99.90
8591;DHT22;4333;48.322;14.340;2023-05-10T16:19:52;15.30;99.90
8591;DHT22;4333;48.322;14.340;2023-05-10T16:22:18;15.30;99.90
8591;DHT22;4333;48.322;14.340;2023-05-10T16:24:46;15.30;99.90
8591;DHT22;4333;48.322;14.340;2023-05-10T16:27:15;15.40;99.90
8591;DHT22;4333;48.322;14.340;2023-05-10T16:29:42;15.50;99.90
8591;DHT22;4333;48.322;14.340;2023-05-10T16:32:08;15.50;99.90
8591;DHT22;4333;48.322;14.340;2023-05-10T16:34:34;15.50;99.90
8591;DHT22;4333;48.322;14.340;2023-05-10T16:37:02;15.40;99.90
8591;DHT22;4333;48.322;14.340;2023-05-10T16:39:29;15.30;99.90
8591;DHT22;4333;48.322;14.340;2023-05-10T16:41:55;15.20;99.90
8591;DHT22;4333;48.322;14.340;2023-05-10T16:44:21;15.20;99.90